Wetterdaten: Montag, 18.02.2008
Datum Zeit Temp. A. Feuchte A. Luftdruck Regen Wind Richtung Richtung Sonnenschein UV Solar Windben
18.02.2008 00:00 -3,4 C 79 % 1036,2 hPa 0,0 mm 0,0 km/h (0 Bft) N 0 0 min 0 UV-I 0 W/m 0,0 km/h (0 Bft)
18.02.2008 00:10 -3,6 C 79 % 1036,1 hPa 0,0 mm 0,0 km/h (0 Bft) N 0 0 min 0 UV-I 0 W/m 0,0 km/h (0 Bft)
18.02.2008 00:20 -3,7 C 79 % 1036,2 hPa 0,0 mm 0,0 km/h (0 Bft) N 0 0 min 0 UV-I 0 W/m 0,0 km/h (0 Bft)
18.02.2008 00:30 -3,8 C 79 % 1036,0 hPa 0,0 mm 0,0 km/h (0 Bft) N 0 0 min 0 UV-I 0 W/m 0,0 km/h (0 Bft)
18.02.2008 00:40 -3,8 C 80 % 1036,1 hPa 0,0 mm 0,0 km/h (0 Bft) N 0 0 min 0 UV-I 0 W/m 0,0 km/h (0 Bft)
18.02.2008 00:50 -3,9 C 80 % 1035,9 hPa 0,0 mm 0,0 km/h (0 Bft) N 0 0 min 0 UV-I 0 W/m 0,0 km/h (0 Bft)
18.02.2008 01:00 -4,0 C 80 % 1035,8 hPa 0,0 mm 0,0 km/h (0 Bft) N 0 0 min 0 UV-I 0 W/m 0,0 km/h (0 Bft)
18.02.2008 01:10 -4,1 C 80 % 1035,7 hPa 0,0 mm 0,0 km/h (0 Bft) N 0 0 min 0 UV-I 0 W/m 0,0 km/h (0 Bft)
18.02.2008 01:20 -4,2 C 81 % 1035,6 hPa 0,0 mm 0,0 km/h (0 Bft) N 0 0 min 0 UV-I 0 W/m 0,0 km/h (0 Bft)
18.02.2008 01:30 -4,3 C 81 % 1035,5 hPa 0,0 mm 0,0 km/h (0 Bft) N 0 0 min 0 UV-I 0 W/m 0,0 km/h (0 Bft)
18.02.2008 01:40 -4,4 C 81 % 1035,4 hPa 0,0 mm 0,0 km/h (0 Bft) N 0 0 min 0 UV-I 0 W/m 0,0 km/h (0 Bft)
18.02.2008 01:50 -4,5 C 81 % 1035,3 hPa 0,0 mm 0,0 km/h (0 Bft) N 0 0 min 0 UV-I 0 W/m 0,0 km/h (0 Bft)
18.02.2008 02:00 -4,6 C 81 % 1035,0 hPa 0,0 mm 0,0 km/h (0 Bft) N 0 0 min 0 UV-I 0 W/m 0,0 km/h (0 Bft)
18.02.2008 02:10 -4,7 C 82 % 1035,0 hPa 0,0 mm 0,0 km/h (0 Bft) N 0 0 min 0 UV-I 0 W/m 0,0 km/h (0 Bft)
18.02.2008 02:20 -4,8 C 82 % 1035,0 hPa 0,0 mm 0,0 km/h (0 Bft) N 0 0 min 0 UV-I 0 W/m 0,0 km/h (0 Bft)
18.02.2008 02:30 -4,8 C 82 % 1035,0 hPa 0,0 mm 0,0 km/h (0 Bft) N 0 0 min 0 UV-I 0 W/m 0,0 km/h (0 Bft)
18.02.2008 02:40 -4,9 C 89 % 1034,9 hPa 0,0 mm 0,0 km/h (0 Bft) N 0 0 min 0 UV-I 0 W/m 0,0 km/h (0 Bft)
18.02.2008 02:50 -5,1 C 82 % 1034,7 hPa 0,0 mm 0,0 km/h (0 Bft) N 0 0 min 0 UV-I 0 W/m 0,0 km/h (0 Bft)
18.02.2008 03:00 -5,2 C 83 % 1034,7 hPa 0,0 mm 0,0 km/h (0 Bft) N 0 0 min 0 UV-I 0 W/m 0,0 km/h (0 Bft)
18.02.2008 03:10 -5,2 C 82 % 1034,6 hPa 0,0 mm 0,0 km/h (0 Bft) N 0 0 min 0 UV-I 0 W/m 0,0 km/h (0 Bft)
18.02.2008 03:20 -5,3 C 83 % 1034,6 hPa 0,0 mm 0,0 km/h (0 Bft) N 0 0 min 0 UV-I 0 W/m 0,0 km/h (0 Bft)
18.02.2008 03:30 -5,3 C 83 % 1034,5 hPa 0,0 mm 0,0 km/h (0 Bft) N 0 0 min 0 UV-I 0 W/m 0,0 km/h (0 Bft)
18.02.2008 03:40 -5,3 C 84 % 1034,5 hPa 0,0 mm 0,0 km/h (0 Bft) SW 225 0 min 0 UV-I 0 W/m 1,6 km/h (1 Bft)
18.02.2008 03:50 -5,4 C 84 % 1034,4 hPa 0,0 mm 0,0 km/h (0 Bft) N 0 0 min 0 UV-I 0 W/m 0,0 km/h (0 Bft)
18.02.2008 04:00 -5,4 C 84 % 1034,5 hPa 0,0 mm 0,0 km/h (0 Bft) N 0 0 min 0 UV-I 0 W/m 0,0 km/h (0 Bft)
18.02.2008 04:10 -5,4 C 85 % 1034,4 hPa 0,0 mm 0,0 km/h (0 Bft) N 0 0 min 0 UV-I 0 W/m 0,0 km/h (0 Bft)
18.02.2008 04:20 -5,3 C 85 % 1034,4 hPa 0,0 mm 0,0 km/h (0 Bft) N 0 0 min 0 UV-I 0 W/m 0,0 km/h (0 Bft)
18.02.2008 04:30 -5,2 C 86 % 1034,4 hPa 0,0 mm 0,0 km/h (0 Bft) N 0 0 min 0 UV-I 0 W/m 0,0 km/h (0 Bft)
18.02.2008 04:40 -5,1 C 86 % 1034,4 hPa 0,0 mm 0,0 km/h (0 Bft) N 0 0 min 0 UV-I 0 W/m 0,0 km/h (0 Bft)
18.02.2008 04:50 -4,8 C 87 % 1034,4 hPa 0,0 mm 0,0 km/h (0 Bft) SW 225 0 min 0 UV-I 0 W/m 1,6 km/h (1 Bft)
18.02.2008 05:00 -4,6 C 87 % 1034,3 hPa 0,0 mm 0,0 km/h (0 Bft) SW 225 0 min 0 UV-I 0 W/m 1,6 km/h (1 Bft)
18.02.2008 05:10 -4,3 C 88 % 1034,4 hPa 0,0 mm 0,0 km/h (0 Bft) W-SW 247 0 min 0 UV-I 0 W/m 4,8 km/h (1 Bft)
18.02.2008 05:20 -3,9 C 88 % 1034,5 hPa 0,0 mm 0,0 km/h (0 Bft) N 0 0 min 0 UV-I 0 W/m 0,0 km/h (0 Bft)
18.02.2008 05:30 -3,6 C 89 % 1034,5 hPa 0,0 mm 0,0 km/h (0 Bft) W-SW 247 0 min 0 UV-I 0 W/m 1,6 km/h (1 Bft)
18.02.2008 05:40 -3,3 C 89 % 1034,6 hPa 0,0 mm 0,0 km/h (0 Bft) N 0 0 min 0 UV-I 0 W/m 0,0 km/h (0 Bft)
18.02.2008 05:50 -3,1 C 89 % 1034,5 hPa 0,0 mm 0,0 km/h (0 Bft) N 0 0 min 0 UV-I 0 W/m 0,0 km/h (0 Bft)
18.02.2008 06:00 -2,9 C 89 % 1034,5 hPa 0,0 mm 0,0 km/h (0 Bft) N 0 0 min 0 UV-I 0 W/m 0,0 km/h (0 Bft)
18.02.2008 06:10 -2,7 C 89 % 1034,4 hPa 0,0 mm 1,6 km/h (1 Bft) W 270 0 min 0 UV-I 0 W/m 9,7 km/h (2 Bft)
18.02.2008 06:20 -2,3 C 89 % 1034,3 hPa 0,0 mm 0,0 km/h (0 Bft) W 270 0 min 0 UV-I 0 W/m 1,6 km/h (1 Bft)
18.02.2008 06:30 -2,2 C 89 % 1034,2 hPa 0,0 mm 0,0 km/h (0 Bft) W 270 0 min 0 UV-I 0 W/m 1,6 km/h (1 Bft)
18.02.2008 06:40 -1,9 C 89 % 1034,1 hPa 0,0 mm 1,6 km/h (1 Bft) NW 315 0 min 0 UV-I 0 W/m 6,4 km/h (2 Bft)
18.02.2008 06:50 -1,6 C 89 % 1034,0 hPa 0,0 mm 1,6 km/h (1 Bft) W 270 0 min 0 UV-I 0 W/m 8,0 km/h (2 Bft)
18.02.2008 07:00 -1,3 C 89 % 1034,0 hPa 0,0 mm 3,2 km/h (1 Bft) W 270 0 min 0 UV-I 0 W/m 8,0 km/h (2 Bft)
18.02.2008 07:10 -1,1 C 88 % 1033,9 hPa 0,0 mm 4,8 km/h (1 Bft) W 270 0 min 0 UV-I 0 W/m 11,3 km/h (2 Bft)
18.02.2008 07:20 -0,9 C 88 % 1034,1 hPa 0,0 mm 4,8 km/h (1 Bft) W 270 0 min 0 UV-I 0 W/m 11,3 km/h (2 Bft)
18.02.2008 07:30 -0,9 C 87 % 1034,1 hPa 0,0 mm 3,2 km/h (1 Bft) W-SW 247 0 min 0 UV-I 0 W/m 8,0 km/h (2 Bft)
18.02.2008 07:40 -0,9 C 87 % 1034,3 hPa 0,0 mm 4,8 km/h (1 Bft) SW 225 0 min 0 UV-I 0 W/m 11,3 km/h (2 Bft)
18.02.2008 07:50 -0,8 C 86 % 1034,3 hPa 0,0 mm 3,2 km/h (1 Bft) W-NW 292 0 min 0 UV-I 0 W/m 6,4 km/h (2 Bft)
18.02.2008 08:00 -0,8 C 86 % 1034,3 hPa 0,0 mm 3,2 km/h (1 Bft) W 270 0 min 0 UV-I 5 W/m 9,7 km/h (2 Bft)
18.02.2008 08:10 -0,8 C 86 % 1034,3 hPa 0,0 mm 3,2 km/h (1 Bft) W-SW 247 0 min 0 UV-I 9 W/m 8,0 km/h (2 Bft)
18.02.2008 08:20 -0,8 C 86 % 1034,4 hPa 0,0 mm 3,2 km/h (1 Bft) W-SW 247 0 min 0 UV-I 9 W/m 9,7 km/h (2 Bft)
18.02.2008 08:30 -0,8 C 86 % 1034,5 hPa 0,0 mm 3,2 km/h (1 Bft) W 270 0 min 0 UV-I 12 W/m 9,7 km/h (2 Bft)
18.02.2008 08:40 -0,8 C 86 % 1034,5 hPa 0,0 mm 3,2 km/h (1 Bft) W 270 0 min 0 UV-I 14 W/m 9,7 km/h (2 Bft)
18.02.2008 08:50 -0,7 C 85 % 1034,5 hPa 0,0 mm 1,6 km/h (1 Bft) W 270 0 min 0 UV-I 16 W/m 4,8 km/h (1 Bft)
18.02.2008 09:00 -0,7 C 85 % 1034,5 hPa 0,0 mm 3,2 km/h (1 Bft) W-SW 247 0 min 0 UV-I 25 W/m 8,0 km/h (2 Bft)
18.02.2008 09:10 -0,8 C 85 % 1034,4 hPa 0,0 mm 4,8 km/h (1 Bft) W 270 0 min 0 UV-I 30 W/m 9,7 km/h (2 Bft)
18.02.2008 09:20 -0,8 C 85 % 1034,5 hPa 0,0 mm 3,2 km/h (1 Bft) W-NW 292 0 min 0 UV-I 40 W/m 8,0 km/h (2 Bft)
18.02.2008 09:30 -0,8 C 85 % 1034,5 hPa 0,0 mm 3,2 km/h (1 Bft) W 270 0 min 0 UV-I 40 W/m 8,0 km/h (2 Bft)
18.02.2008 09:40 -0,7 C 85 % 1034,6 hPa 0,0 mm 3,2 km/h (1 Bft) W 270 0 min 0 UV-I 49 W/m 8,0 km/h (2 Bft)
18.02.2008 09:50 -0,7 C 85 % 1034,7 hPa 0,0 mm 4,8 km/h (1 Bft) W 270 0 min 0 UV-I 53 W/m 9,7 km/h (2 Bft)
18.02.2008 10:00 -0,6 C 85 % 1034,4 hPa 0,0 mm 4,8 km/h (1 Bft) W-SW 247 0 min 0 UV-I 74 W/m 9,7 km/h (2 Bft)
18.02.2008 10:10 -0,6 C 85 % 1034,6 hPa 0,0 mm 4,8 km/h (1 Bft) W-SW 247 0 min 0 UV-I 70 W/m 11,3 km/h (2 Bft)
18.02.2008 10:20 -0,5 C 85 % 1034,5 hPa 0,0 mm 4,8 km/h (1 Bft) W-SW 247 0 min 0 UV-I 81 W/m 14,5 km/h (3 Bft)
18.02.2008 10:30 -0,4 C 84 % 1034,6 hPa 0,0 mm 4,8 km/h (1 Bft) W 270 0 min 0 UV-I 70 W/m 11,3 km/h (2 Bft)
18.02.2008 10:40 -0,4 C 84 % 1034,5 hPa 0,0 mm 4,8 km/h (1 Bft) W 270 0 min 0 UV-I 86 W/m 11,3 km/h (2 Bft)
18.02.2008 10:50 -0,3 C 84 % 1034,6 hPa 0,0 mm 4,8 km/h (1 Bft) SW 225 0 min 0 UV-I 74 W/m 12,9 km/h (3 Bft)
18.02.2008 11:00 -0,3 C 85 % 1034,5 hPa 0,0 mm 4,8 km/h (1 Bft) W-SW 247 0 min 0 UV-I 74 W/m 9,7 km/h (2 Bft)
18.02.2008 11:10 -0,3 C 85 % 1034,4 hPa 0,0 mm 4,8 km/h (1 Bft) SW 225 0 min 0 UV-I 83 W/m 11,3 km/h (2 Bft)
18.02.2008 11:20 -0,2 C 85 % 1034,4 hPa 0,0 mm 4,8 km/h (1 Bft) W-SW 247 0 min 1 UV-I 104 W/m 11,3 km/h (2 Bft)
18.02.2008 11:30 -0,2 C 85 % 1034,4 hPa 0,0 mm 4,8 km/h (1 Bft) W-SW 247 0 min 1 UV-I 111 W/m 11,3 km/h (2 Bft)
18.02.2008 11:40 -0,1 C 84 % 1034,4 hPa 0,0 mm 4,8 km/h (1 Bft) W 270 0 min 1 UV-I 107 W/m 11,3 km/h (2 Bft)
18.02.2008 11:50 -0,1 C 84 % 1034,3 hPa 0,0 mm 6,4 km/h (2 Bft) W-SW 247 0 min 0 UV-I 79 W/m 12,9 km/h (3 Bft)
18.02.2008 12:00 0,0 C 84 % 1034,2 hPa 0,0 mm 3,2 km/h (1 Bft) SW 225 0 min 1 UV-I 107 W/m 8,0 km/h (2 Bft)
18.02.2008 12:10 0,1 C 84 % 1034,1 hPa 0,0 mm 4,8 km/h (1 Bft) W-SW 247 0 min 1 UV-I 98 W/m 11,3 km/h (2 Bft)
18.02.2008 12:20 0,2 C 84 % 1034,1 hPa 0,0 mm 4,8 km/h (1 Bft) W-SW 247 0 min 1 UV-I 88 W/m 9,7 km/h (2 Bft)
18.02.2008 12:30 0,2 C 84 % 1034,0 hPa 0,0 mm 4,8 km/h (1 Bft) S-SW 202 0 min 1 UV-I 88 W/m 11,3 km/h (2 Bft)
18.02.2008 12:40 0,3 C 85 % 1033,8 hPa 0,0 mm 4,8 km/h (1 Bft) W-SW 247 0 min 1 UV-I 81 W/m 9,7 km/h (2 Bft)
18.02.2008 12:50 0,3 C 85 % 1033,7 hPa 0,0 mm 4,8 km/h (1 Bft) SW 225 0 min 1 UV-I 81 W/m 11,3 km/h (2 Bft)
18.02.2008 13:00 0,3 C 85 % 1033,6 hPa 0,0 mm 4,8 km/h (1 Bft) W-SW 247 0 min 1 UV-I 98 W/m 14,5 km/h (3 Bft)
18.02.2008 13:10 0,3 C 85 % 1033,6 hPa 0,0 mm 3,2 km/h (1 Bft) S-SW 202 0 min 1 UV-I 107 W/m 8,0 km/h (2 Bft)
18.02.2008 13:20 0,4 C 85 % 1033,5 hPa 0,0 mm 4,8 km/h (1 Bft) SW 225 0 min 1 UV-I 91 W/m 9,7 km/h (2 Bft)
18.02.2008 13:30 0,6 C 85 % 1033,2 hPa 0,0 mm 3,2 km/h (1 Bft) SW 225 0 min 1 UV-I 93 W/m 9,7 km/h (2 Bft)
18.02.2008 13:40 0,7 C 85 % 1033,2 hPa 0,0 mm 4,8 km/h (1 Bft) W-SW 247 0 min 1 UV-I 93 W/m 11,3 km/h (2 Bft)
18.02.2008 13:50 0,7 C 85 % 1033,1 hPa 0,0 mm 3,2 km/h (1 Bft) W-SW 247 0 min 0 UV-I 74 W/m 8,0 km/h (2 Bft)
18.02.2008 14:00 0,8 C 85 % 1032,9 hPa 0,0 mm 4,8 km/h (1 Bft) W-SW 247 0 min 1 UV-I 86 W/m 16,1 km/h (3 Bft)
18.02.2008 14:10 0,8 C 85 % 1032,8 hPa 0,0 mm 3,2 km/h (1 Bft) W 270 0 min 1 UV-I 95 W/m 9,7 km/h (2 Bft)
18.02.2008 14:20 0,9 C 85 % 1032,6 hPa 0,0 mm 4,8 km/h (1 Bft) W-SW 247 0 min 1 UV-I 98 W/m 9,7 km/h (2 Bft)
18.02.2008 14:30 1,1 C 84 % 1032,5 hPa 0,0 mm 4,8 km/h (1 Bft) W-SW 247 0 min 1 UV-I 107 W/m 9,7 km/h (2 Bft)
18.02.2008 14:40 1,2 C 84 % 1032,4 hPa 0,0 mm 4,8 km/h (1 Bft) SW 225 0 min 1 UV-I 111 W/m 11,3 km/h (2 Bft)
18.02.2008 14:50 1,3 C 83 % 1032,3 hPa 0,0 mm 3,2 km/h (1 Bft) W 270 0 min 1 UV-I 100 W/m 9,7 km/h (2 Bft)
18.02.2008 15:00 1,4 C 82 % 1032,2 hPa 0,0 mm 4,8 km/h (1 Bft) W 270 0 min 1 UV-I 113 W/m 11,3 km/h (2 Bft)
18.02.2008 15:10 1,5 C 82 % 1032,2 hPa 0,0 mm 4,8 km/h (1 Bft) W 270 0 min 1 UV-I 118 W/m 9,7 km/h (2 Bft)
18.02.2008 15:20 1,6 C 81 % 1032,1 hPa 0,0 mm 4,8 km/h (1 Bft) W-SW 247 0 min 1 UV-I 128 W/m 8,0 km/h (2 Bft)
18.02.2008 15:30 1,8 C 81 % 1032,1 hPa 0,0 mm 3,2 km/h (1 Bft) W 270 0 min 1 UV-I 128 W/m 6,4 km/h (2 Bft)
18.02.2008 15:40 1,9 C 81 % 1031,9 hPa 0,0 mm 3,2 km/h (1 Bft) NW 315 0 min 0 UV-I 123 W/m 6,4 km/h (2 Bft)
18.02.2008 15:50 2,0 C 80 % 1031,9 hPa 0,0 mm 1,6 km/h (1 Bft) W-NW 292 0 min 0 UV-I 116 W/m 6,4 km/h (2 Bft)
18.02.2008 16:00 2,1 C 80 % 1031,9 hPa 0,0 mm 1,6 km/h (1 Bft) W-NW 292 0 min 0 UV-I 90 W/m 4,8 km/h (1 Bft)
18.02.2008 16:10 2,1 C 80 % 1031,8 hPa 0,0 mm 0,0 km/h (0 Bft) NW 315 0 min 0 UV-I 81 W/m 3,2 km/h (1 Bft)
18.02.2008 16:20 2,2 C 80 % 1031,8 hPa 0,0 mm 1,6 km/h (1 Bft) NW 315 0 min 0 UV-I 72 W/m 4,8 km/h (1 Bft)
18.02.2008 16:30 2,2 C 80 % 1031,8 hPa 0,0 mm 1,6 km/h (1 Bft) W-NW 292 0 min 0 UV-I 69 W/m 4,8 km/h (1 Bft)
18.02.2008 16:40 2,2 C 80 % 1031,8 hPa 0,0 mm 1,6 km/h (1 Bft) N-NW 337 0 min 0 UV-I 51 W/m 4,8 km/h (1 Bft)
18.02.2008 16:50 2,2 C 81 % 1031,8 hPa 0,0 mm 0,0 km/h (0 Bft) N 360 0 min 0 UV-I 35 W/m 4,8 km/h (1 Bft)
18.02.2008 17:00 2,2 C 81 % 1031,9 hPa 0,0 mm 1,6 km/h (1 Bft) N 360 0 min 0 UV-I 28 W/m 4,8 km/h (1 Bft)
18.02.2008 17:10 2,1 C 81 % 1031,8 hPa 0,0 mm 1,6 km/h (1 Bft) N 360 0 min 0 UV-I 21 W/m 4,8 km/h (1 Bft)
18.02.2008 17:20 2,1 C 81 % 1031,8 hPa 0,0 mm 0,0 km/h (0 Bft) N 360 0 min 0 UV-I 16 W/m 3,2 km/h (1 Bft)
18.02.2008 17:30 1,9 C 81 % 1031,8 hPa 0,0 mm 0,0 km/h (0 Bft) N 360 0 min 0 UV-I 9 W/m 1,6 km/h (1 Bft)
18.02.2008 17:40 1,9 C 81 % 1031,7 hPa 0,0 mm 1,6 km/h (1 Bft) N 360 0 min 0 UV-I 7 W/m 3,2 km/h (1 Bft)
18.02.2008 17:50 1,9 C 81 % 1031,7 hPa 0,0 mm 0,0 km/h (0 Bft) N 360 0 min 0 UV-I 0 W/m 3,2 km/h (1 Bft)
18.02.2008 18:00 1,8 C 82 % 1031,6 hPa 0,0 mm 1,6 km/h (1 Bft) N 360 0 min 0 UV-I 0 W/m 3,2 km/h (1 Bft)
18.02.2008 18:10 1,7 C 82 % 1031,5 hPa 0,0 mm 1,6 km/h (1 Bft) N 360 0 min 0 UV-I 0 W/m 4,8 km/h (1 Bft)
18.02.2008 18:20 1,6 C 82 % 1031,5 hPa 0,0 mm 1,6 km/h (1 Bft) W 270 0 min 0 UV-I 0 W/m 3,2 km/h (1 Bft)
18.02.2008 18:30 1,6 C 83 % 1031,5 hPa 0,0 mm 1,6 km/h (1 Bft) W 270 0 min 0 UV-I 0 W/m 3,2 km/h (1 Bft)
18.02.2008 18:40 1,6 C 83 % 1031,4 hPa 0,0 mm 0,0 km/h (0 Bft) W 270 0 min 0 UV-I 0 W/m 3,2 km/h (1 Bft)
18.02.2008 18:50 1,6 C 83 % 1031,4 hPa 0,0 mm 1,6 km/h (1 Bft) W-SW 247 0 min 0 UV-I 0 W/m 3,2 km/h (1 Bft)
18.02.2008 19:00 1,5 C 83 % 1031,3 hPa 0,0 mm 1,6 km/h (1 Bft) W-SW 247 0 min 0 UV-I 0 W/m 3,2 km/h (1 Bft)
18.02.2008 19:10 1,5 C 83 % 1031,3 hPa 0,0 mm 0,0 km/h (0 Bft) W-SW 247 0 min 0 UV-I 0 W/m 3,2 km/h (1 Bft)
18.02.2008 19:20 1,5 C 83 % 1031,2 hPa 0,0 mm 0,0 km/h (0 Bft) W-SW 247 0 min 0 UV-I 0 W/m 1,6 km/h (1 Bft)
18.02.2008 19:30 1,4 C 83 % 1031,2 hPa 0,0 mm 0,0 km/h (0 Bft) W-SW 247 0 min 0 UV-I 0 W/m 3,2 km/h (1 Bft)
18.02.2008 19:40 1,4 C 83 % 1031,2 hPa 0,0 mm 0,0 km/h (0 Bft) W-SW 247 0 min 0 UV-I 0 W/m 3,2 km/h (1 Bft)
18.02.2008 19:50 1,4 C 83 % 1031,1 hPa 0,0 mm 0,0 km/h (0 Bft) W-SW 247 0 min 0 UV-I 0 W/m 3,2 km/h (1 Bft)
18.02.2008 20:00 1,4 C 83 % 1031,1 hPa 0,0 mm 0,0 km/h (0 Bft) W-SW 247 0 min 0 UV-I 0 W/m 3,2 km/h (1 Bft)
18.02.2008 20:10 1,5 C 84 % 1031,1 hPa 0,0 mm 1,6 km/h (1 Bft) W-SW 247 0 min 0 UV-I 0 W/m 4,8 km/h (1 Bft)
18.02.2008 20:20 1,5 C 84 % 1031,1 hPa 0,0 mm 1,6 km/h (1 Bft) W-SW 247 0 min 0 UV-I 0 W/m 4,8 km/h (1 Bft)
18.02.2008 20:30 1,5 C 84 % 1031,1 hPa 0,0 mm 0,0 km/h (0 Bft) W-SW 247 0 min 0 UV-I 0 W/m 1,6 km/h (1 Bft)
18.02.2008 20:40 1,5 C 84 % 1031,1 hPa 0,0 mm 0,0 km/h (0 Bft) W-SW 247 0 min 0 UV-I 0 W/m 1,6 km/h (1 Bft)
18.02.2008 20:50 1,5 C 84 % 1031,1 hPa 0,0 mm 0,0 km/h (0 Bft) W-SW 247 0 min 0 UV-I 0 W/m 1,6 km/h (1 Bft)
18.02.2008 21:00 1,5 C 84 % 1031,1 hPa 0,0 mm 0,0 km/h (0 Bft) N 0 0 min 0 UV-I 0 W/m 0,0 km/h (0 Bft)
18.02.2008 21:10 1,5 C 84 % 1031,1 hPa 0,0 mm 0,0 km/h (0 Bft) N 0 0 min 0 UV-I 0 W/m 0,0 km/h (0 Bft)
18.02.2008 21:20 1,5 C 83 % 1031,2 hPa 0,0 mm 0,0 km/h (0 Bft) N 0 0 min 0 UV-I 0 W/m 0,0 km/h (0 Bft)
18.02.2008 21:30 1,4 C 84 % 1031,0 hPa 0,0 mm 0,0 km/h (0 Bft) W-SW 247 0 min 0 UV-I 0 W/m 1,6 km/h (1 Bft)
18.02.2008 21:40 1,5 C 84 % 1031,1 hPa 0,0 mm 0,0 km/h (0 Bft) W-SW 247 0 min 0 UV-I 0 W/m 1,6 km/h (1 Bft)
18.02.2008 21:50 1,5 C 84 % 1031,1 hPa 0,0 mm 0,0 km/h (0 Bft) W-SW 247 0 min 0 UV-I 0 W/m 3,2 km/h (1 Bft)
18.02.2008 22:00 1,6 C 84 % 1031,0 hPa 0,0 mm 1,6 km/h (1 Bft) W-SW 247 0 min 0 UV-I 0 W/m 4,8 km/h (1 Bft)
18.02.2008 22:10 1,6 C 85 % 1031,0 hPa 0,0 mm 1,6 km/h (1 Bft) W-SW 247 0 min 0 UV-I 0 W/m 4,8 km/h (1 Bft)
18.02.2008 22:20 1,7 C 85 % 1030,9 hPa 0,0 mm 1,6 km/h (1 Bft) W-SW 247 0 min 0 UV-I 0 W/m 4,8 km/h (1 Bft)
18.02.2008 22:30 1,7 C 85 % 1030,8 hPa 0,0 mm 3,2 km/h (1 Bft) W 270 0 min 0 UV-I 0 W/m 6,4 km/h (2 Bft)
18.02.2008 22:40 1,8 C 86 % 1030,7 hPa 0,0 mm 3,2 km/h (1 Bft) W-SW 247 0 min 0 UV-I 0 W/m 6,4 km/h (2 Bft)
18.02.2008 22:50 1,9 C 86 % 1030,7 hPa 0,0 mm 1,6 km/h (1 Bft) W-SW 247 0 min 0 UV-I 0 W/m 6,4 km/h (2 Bft)
18.02.2008 23:00 2,0 C 87 % 1030,6 hPa 0,0 mm 1,6 km/h (1 Bft) SW 225 0 min 0 UV-I 0 W/m 4,8 km/h (1 Bft)
18.02.2008 23:10 2,1 C 87 % 1030,5 hPa 0,0 mm 1,6 km/h (1 Bft) SW 225 0 min 0 UV-I 0 W/m 3,2 km/h (1 Bft)
18.02.2008 23:20 2,1 C 88 % 1030,6 hPa 0,0 mm 1,6 km/h (1 Bft) W-SW 247 0 min 0 UV-I 0 W/m 4,8 km/h (1 Bft)
18.02.2008 23:30 2,2 C 88 % 1030,5 hPa 0,0 mm 1,6 km/h (1 Bft) W-SW 247 0 min 0 UV-I 0 W/m 4,8 km/h (1 Bft)
18.02.2008 23:40 2,3 C 88 % 1030,4 hPa 0,0 mm 1,6 km/h (1 Bft) W-SW 247 0 min 0 UV-I 0 W/m 3,2 km/h (1 Bft)
18.02.2008 23:50 2,3 C 88 % 1030,4 hPa 0,0 mm 0,0 km/h (0 Bft) SW 225 0 min 0 UV-I 0 W/m 4,8 km/h (1 Bft)
_ Min-Zeit 03:50 00:00 23:40 - 00:00 - - - - - 00:00
Minimum _ -5,4 C 79 % 1030,4 hPa - 0,0 km/h (0 Bft) - - - - - 0,0 km/h (0 Bft)
_ Max-Zeit 23:40 02:40 00:00 00:00 11:50 - - 00:00 11:30 15:20 14:00
Maximum _ 2,3 C 89 % 1036,2 hPa 0,0 mm 6,4 km/h
W-SW (2 Bft)
- - 0 min 1 UV-I 128 W/m 16,1 km/h
W (3 Bft)
Durchschnitt _ -0,6 C 84 % 1033,3 hPa #0,0 mm 1,9 km/h (1 Bft) W-SW - #0 min. 1 UV-I 71 W/m 5,2 km/h (1 Bft)